sensor_id;sensor_type;location;lat;lon;timestamp;P1;durP1;ratioP1;P2;durP2;ratioP2
13469;SDS011;6807;48.682;9.032;2022-08-25T00:01:11;3.25;;;2.95;;
13469;SDS011;6807;48.682;9.032;2022-08-25T00:03:39;3.67;;;3.25;;
13469;SDS011;6807;48.682;9.032;2022-08-25T00:06:07;3.30;;;3.00;;
13469;SDS011;6807;48.682;9.032;2022-08-25T00:08:35;3.30;;;3.00;;
13469;SDS011;6807;48.682;9.032;2022-08-25T00:11:03;3.28;;;3.00;;
13469;SDS011;6807;48.682;9.032;2022-08-25T00:13:32;4.10;;;3.33;;
13469;SDS011;6807;48.682;9.032;2022-08-25T00:15:59;4.55;;;2.88;;
13469;SDS011;6807;48.682;9.032;2022-08-25T00:18:26;5.45;;;3.10;;
13469;SDS011;6807;48.682;9.032;2022-08-25T00:20:53;4.03;;;3.42;;
13469;SDS011;6807;48.682;9.032;2022-08-25T00:23:20;3.78;;;3.42;;
13469;SDS011;6807;48.682;9.032;2022-08-25T00:25:48;3.50;;;3.17;;
13469;SDS011;6807;48.682;9.032;2022-08-25T00:28:16;3.83;;;3.03;;
13469;SDS011;6807;48.682;9.032;2022-08-25T00:30:44;4.88;;;3.20;;
13469;SDS011;6807;48.682;9.032;2022-08-25T00:33:13;3.92;;;3.15;;
13469;SDS011;6807;48.682;9.032;2022-08-25T00:35:41;3.95;;;3.20;;
13469;SDS011;6807;48.682;9.032;2022-08-25T00:38:08;3.60;;;3.30;;
13469;SDS011;6807;48.682;9.032;2022-08-25T00:40:36;4.20;;;3.25;;
13469;SDS011;6807;48.682;9.032;2022-08-25T00:43:04;4.15;;;3.20;;
13469;SDS011;6807;48.682;9.032;2022-08-25T00:45:31;3.97;;;3.30;;
13469;SDS011;6807;48.682;9.032;2022-08-25T00:47:59;3.60;;;3.30;;
13469;SDS011;6807;48.682;9.032;2022-08-25T00:50:27;4.82;;;2.80;;
13469;SDS011;6807;48.682;9.032;2022-08-25T00:52:55;3.55;;;3.20;;
13469;SDS011;6807;48.682;9.032;2022-08-25T00:55:26;3.50;;;3.20;;
13469;SDS011;6807;48.682;9.032;2022-08-25T00:57:57;3.70;;;3.20;;
13469;SDS011;6807;48.682;9.032;2022-08-25T01:00:32;4.10;;;2.88;;
13469;SDS011;6807;48.682;9.032;2022-08-25T01:03:03;3.58;;;3.28;;
13469;SDS011;6807;48.682;9.032;2022-08-25T01:05:30;3.55;;;3.25;;
13469;SDS011;6807;48.682;9.032;2022-08-25T01:08:05;3.75;;;3.20;;
13469;SDS011;6807;48.682;9.032;2022-08-25T01:10:34;3.40;;;3.10;;
13469;SDS011;6807;48.682;9.032;2022-08-25T01:13:04;3.90;;;3.50;;
13469;SDS011;6807;48.682;9.032;2022-08-25T01:15:34;3.75;;;3.45;;
13469;SDS011;6807;48.682;9.032;2022-08-25T01:18:02;3.92;;;3.55;;
13469;SDS011;6807;48.682;9.032;2022-08-25T01:20:30;4.68;;;4.20;;
13469;SDS011;6807;48.682;9.032;2022-08-25T01:23:00;5.82;;;3.47;;
13469;SDS011;6807;48.682;9.032;2022-08-25T01:25:32;5.47;;;3.58;;
13469;SDS011;6807;48.682;9.032;2022-08-25T01:28:06;3.90;;;3.50;;
13469;SDS011;6807;48.682;9.032;2022-08-25T01:30:34;4.10;;;3.70;;
13469;SDS011;6807;48.682;9.032;2022-08-25T01:33:02;5.50;;;3.78;;
13469;SDS011;6807;48.682;9.032;2022-08-25T01:35:30;3.85;;;3.50;;
13469;SDS011;6807;48.682;9.032;2022-08-25T01:37:58;3.80;;;3.50;;
13469;SDS011;6807;48.682;9.032;2022-08-25T01:40:26;4.13;;;3.72;;
13469;SDS011;6807;48.682;9.032;2022-08-25T01:43:01;4.85;;;3.45;;
13469;SDS011;6807;48.682;9.032;2022-08-25T01:45:37;4.20;;;3.80;;
13469;SDS011;6807;48.682;9.032;2022-08-25T01:48:06;4.70;;;3.53;;
13469;SDS011;6807;48.682;9.032;2022-08-25T01:50:33;4.85;;;4.25;;
13469;SDS011;6807;48.682;9.032;2022-08-25T01:53:03;4.22;;;3.83;;
13469;SDS011;6807;48.682;9.032;2022-08-25T01:55:33;4.07;;;3.70;;
13469;SDS011;6807;48.682;9.032;2022-08-25T01:58:15;4.18;;;3.78;;
13469;SDS011;6807;48.682;9.032;2022-08-25T02:00:43;6.15;;;3.97;;
13469;SDS011;6807;48.682;9.032;2022-08-25T02:05:47;4.05;;;3.65;;
13469;SDS011;6807;48.682;9.032;2022-08-25T02:08:15;4.18;;;3.78;;
13469;SDS011;6807;48.682;9.032;2022-08-25T02:10:42;6.00;;;4.28;;
13469;SDS011;6807;48.682;9.032;2022-08-25T02:13:09;5.00;;;4.00;;
13469;SDS011;6807;48.682;9.032;2022-08-25T02:15:39;4.47;;;3.97;;
13469;SDS011;6807;48.682;9.032;2022-08-25T02:18:07;5.22;;;4.35;;
13469;SDS011;6807;48.682;9.032;2022-08-25T02:20:35;4.00;;;3.65;;
13469;SDS011;6807;48.682;9.032;2022-08-25T02:23:06;4.65;;;4.10;;
13469;SDS011;6807;48.682;9.032;2022-08-25T02:25:37;4.15;;;3.72;;
13469;SDS011;6807;48.682;9.032;2022-08-25T02:28:05;4.53;;;4.13;;
13469;SDS011;6807;48.682;9.032;2022-08-25T02:30:33;4.38;;;3.90;;
13469;SDS011;6807;48.682;9.032;2022-08-25T02:33:00;4.53;;;4.10;;
13469;SDS011;6807;48.682;9.032;2022-08-25T02:35:28;5.75;;;4.63;;
13469;SDS011;6807;48.682;9.032;2022-08-25T02:37:55;5.15;;;4.63;;
13469;SDS011;6807;48.682;9.032;2022-08-25T02:40:23;5.05;;;4.55;;
13469;SDS011;6807;48.682;9.032;2022-08-25T02:42:53;6.00;;;4.68;;
13469;SDS011;6807;48.682;9.032;2022-08-25T02:45:29;4.78;;;4.28;;
13469;SDS011;6807;48.682;9.032;2022-08-25T02:47:56;5.32;;;4.82;;
13469;SDS011;6807;48.682;9.032;2022-08-25T02:50:23;4.55;;;4.15;;
13469;SDS011;6807;48.682;9.032;2022-08-25T02:52:50;5.63;;;4.65;;
13469;SDS011;6807;48.682;9.032;2022-08-25T02:55:18;10.93;;;5.07;;
13469;SDS011;6807;48.682;9.032;2022-08-25T02:57:45;5.38;;;4.38;;
13469;SDS011;6807;48.682;9.032;2022-08-25T03:00:16;4.95;;;4.55;;
13469;SDS011;6807;48.682;9.032;2022-08-25T03:02:43;6.22;;;4.78;;
13469;SDS011;6807;48.682;9.032;2022-08-25T03:05:11;5.95;;;4.05;;
13469;SDS011;6807;48.682;9.032;2022-08-25T03:07:40;6.80;;;4.50;;
13469;SDS011;6807;48.682;9.032;2022-08-25T03:10:09;5.68;;;4.70;;
13469;SDS011;6807;48.682;9.032;2022-08-25T03:12:41;4.57;;;4.18;;
13469;SDS011;6807;48.682;9.032;2022-08-25T03:15:08;5.07;;;4.57;;
13469;SDS011;6807;48.682;9.032;2022-08-25T03:17:37;6.32;;;4.35;;
13469;SDS011;6807;48.682;9.032;2022-08-25T03:20:04;4.35;;;3.95;;
13469;SDS011;6807;48.682;9.032;2022-08-25T03:22:32;7.20;;;4.53;;
13469;SDS011;6807;48.682;9.032;2022-08-25T03:24:59;5.15;;;4.53;;
13469;SDS011;6807;48.682;9.032;2022-08-25T03:27:39;5.72;;;4.40;;
13469;SDS011;6807;48.682;9.032;2022-08-25T03:30:12;8.93;;;4.68;;
13469;SDS011;6807;48.682;9.032;2022-08-25T03:32:48;6.05;;;4.20;;
13469;SDS011;6807;48.682;9.032;2022-08-25T03:35:21;6.60;;;4.53;;
13469;SDS011;6807;48.682;9.032;2022-08-25T03:37:53;5.80;;;4.80;;
13469;SDS011;6807;48.682;9.032;2022-08-25T03:40:30;5.55;;;4.88;;
13469;SDS011;6807;48.682;9.032;2022-08-25T03:43:08;5.97;;;4.30;;
13469;SDS011;6807;48.682;9.032;2022-08-25T03:45:43;5.22;;;4.72;;
13469;SDS011;6807;48.682;9.032;2022-08-25T03:48:15;4.72;;;4.30;;
13469;SDS011;6807;48.682;9.032;2022-08-25T03:58:28;4.95;;;4.45;;
13469;SDS011;6807;48.682;9.032;2022-08-25T04:01:02;5.57;;;4.97;;
13469;SDS011;6807;48.682;9.032;2022-08-25T04:03:30;5.20;;;4.70;;
13469;SDS011;6807;48.682;9.032;2022-08-25T04:05:59;5.47;;;4.85;;
13469;SDS011;6807;48.682;9.032;2022-08-25T04:08:27;6.03;;;4.65;;
13469;SDS011;6807;48.682;9.032;2022-08-25T04:10:54;8.93;;;4.55;;
13469;SDS011;6807;48.682;9.032;2022-08-25T04:13:27;5.07;;;4.68;;
13469;SDS011;6807;48.682;9.032;2022-08-25T04:15:57;6.75;;;5.20;;
13469;SDS011;6807;48.682;9.032;2022-08-25T04:18:24;7.40;;;4.70;;
13469;SDS011;6807;48.682;9.032;2022-08-25T04:21:05;5.53;;;4.72;;
13469;SDS011;6807;48.682;9.032;2022-08-25T04:23:36;7.03;;;5.00;;
13469;SDS011;6807;48.682;9.032;2022-08-25T04:26:07;5.57;;;5.07;;
13469;SDS011;6807;48.682;9.032;2022-08-25T04:28:37;6.13;;;4.97;;
13469;SDS011;6807;48.682;9.032;2022-08-25T04:31:04;6.47;;;4.75;;
13469;SDS011;6807;48.682;9.032;2022-08-25T04:33:32;7.05;;;4.72;;
13469;SDS011;6807;48.682;9.032;2022-08-25T04:35:59;5.85;;;4.63;;
13469;SDS011;6807;48.682;9.032;2022-08-25T04:38:28;7.43;;;5.43;;
13469;SDS011;6807;48.682;9.032;2022-08-25T04:40:57;5.63;;;5.13;;
13469;SDS011;6807;48.682;9.032;2022-08-25T04:43:27;6.68;;;5.22;;
13469;SDS011;6807;48.682;9.032;2022-08-25T04:45:56;14.50;;;5.45;;
13469;SDS011;6807;48.682;9.032;2022-08-25T04:48:26;7.40;;;5.68;;
13469;SDS011;6807;48.682;9.032;2022-08-25T04:51:03;6.28;;;4.82;;
13469;SDS011;6807;48.682;9.032;2022-08-25T04:53:38;6.00;;;5.40;;
13469;SDS011;6807;48.682;9.032;2022-08-25T04:56:08;6.30;;;5.40;;
13469;SDS011;6807;48.682;9.032;2022-08-25T04:58:37;5.72;;;4.78;;
13469;SDS011;6807;48.682;9.032;2022-08-25T05:01:05;6.87;;;5.70;;
13469;SDS011;6807;48.682;9.032;2022-08-25T05:03:33;6.20;;;5.53;;
13469;SDS011;6807;48.682;9.032;2022-08-25T05:06:01;5.78;;;5.18;;
13469;SDS011;6807;48.682;9.032;2022-08-25T05:08:29;6.38;;;5.15;;
13469;SDS011;6807;48.682;9.032;2022-08-25T05:10:58;8.02;;;4.78;;
13469;SDS011;6807;48.682;9.032;2022-08-25T05:13:32;7.85;;;5.32;;
13469;SDS011;6807;48.682;9.032;2022-08-25T05:16:01;6.85;;;5.45;;
13469;SDS011;6807;48.682;9.032;2022-08-25T05:22:18;7.13;;;6.20;;
13469;SDS011;6807;48.682;9.032;2022-08-25T05:24:56;8.95;;;5.53;;
13469;SDS011;6807;48.682;9.032;2022-08-25T05:27:28;30.60;;;8.35;;
13469;SDS011;6807;48.682;9.032;2022-08-25T05:29:56;11.90;;;6.18;;
13469;SDS011;6807;48.682;9.032;2022-08-25T05:32:23;6.75;;;5.47;;
13469;SDS011;6807;48.682;9.032;2022-08-25T05:34:51;7.78;;;4.80;;
13469;SDS011;6807;48.682;9.032;2022-08-25T05:37:18;7.22;;;5.47;;
13469;SDS011;6807;48.682;9.032;2022-08-25T05:39:46;5.70;;;5.10;;
13469;SDS011;6807;48.682;9.032;2022-08-25T05:42:13;5.55;;;5.05;;
13469;SDS011;6807;48.682;9.032;2022-08-25T05:44:42;6.00;;;4.88;;
13469;SDS011;6807;48.682;9.032;2022-08-25T05:47:15;6.82;;;4.88;;
13469;SDS011;6807;48.682;9.032;2022-08-25T05:49:43;5.68;;;5.03;;
13469;SDS011;6807;48.682;9.032;2022-08-25T05:52:10;4.78;;;4.30;;
13469;SDS011;6807;48.682;9.032;2022-08-25T05:54:37;4.80;;;4.22;;
13469;SDS011;6807;48.682;9.032;2022-08-25T05:57:05;7.28;;;4.70;;
13469;SDS011;6807;48.682;9.032;2022-08-25T05:59:36;5.32;;;4.82;;
13469;SDS011;6807;48.682;9.032;2022-08-25T06:02:05;5.60;;;4.53;;
13469;SDS011;6807;48.682;9.032;2022-08-25T06:04:51;5.10;;;4.60;;
13469;SDS011;6807;48.682;9.032;2022-08-25T06:07:18;8.77;;;5.25;;
13469;SDS011;6807;48.682;9.032;2022-08-25T06:09:47;6.25;;;4.65;;
13469;SDS011;6807;48.682;9.032;2022-08-25T06:12:15;5.72;;;4.95;;
13469;SDS011;6807;48.682;9.032;2022-08-25T06:14:45;5.28;;;4.78;;
13469;SDS011;6807;48.682;9.032;2022-08-25T06:17:14;5.55;;;5.03;;
13469;SDS011;6807;48.682;9.032;2022-08-25T06:19:42;5.18;;;4.68;;
13469;SDS011;6807;48.682;9.032;2022-08-25T06:22:11;6.47;;;4.60;;
13469;SDS011;6807;48.682;9.032;2022-08-25T06:24:38;7.85;;;4.95;;
13469;SDS011;6807;48.682;9.032;2022-08-25T06:27:06;5.22;;;4.72;;
13469;SDS011;6807;48.682;9.032;2022-08-25T06:29:33;9.98;;;5.25;;
13469;SDS011;6807;48.682;9.032;2022-08-25T06:32:00;5.72;;;4.63;;
13469;SDS011;6807;48.682;9.032;2022-08-25T06:34:28;6.13;;;5.03;;
13469;SDS011;6807;48.682;9.032;2022-08-25T06:36:56;5.82;;;5.15;;
13469;SDS011;6807;48.682;9.032;2022-08-25T06:39:24;5.88;;;5.13;;
13469;SDS011;6807;48.682;9.032;2022-08-25T06:41:52;5.22;;;4.72;;
13469;SDS011;6807;48.682;9.032;2022-08-25T06:44:20;5.07;;;4.57;;
13469;SDS011;6807;48.682;9.032;2022-08-25T06:46:48;5.22;;;4.72;;
13469;SDS011;6807;48.682;9.032;2022-08-25T06:49:15;8.02;;;5.20;;
13469;SDS011;6807;48.682;9.032;2022-08-25T06:51:43;6.43;;;5.28;;
13469;SDS011;6807;48.682;9.032;2022-08-25T06:54:11;5.70;;;5.10;;
13469;SDS011;6807;48.682;9.032;2022-08-25T06:56:40;6.22;;;5.63;;
13469;SDS011;6807;48.682;9.032;2022-08-25T06:59:07;5.30;;;4.78;;
13469;SDS011;6807;48.682;9.032;2022-08-25T07:01:35;10.05;;;5.20;;
13469;SDS011;6807;48.682;9.032;2022-08-25T07:04:03;7.03;;;4.80;;
13469;SDS011;6807;48.682;9.032;2022-08-25T07:06:32;7.18;;;4.88;;
13469;SDS011;6807;48.682;9.032;2022-08-25T07:09:02;5.65;;;4.05;;
13469;SDS011;6807;48.682;9.032;2022-08-25T07:11:30;5.18;;;4.65;;
13469;SDS011;6807;48.682;9.032;2022-08-25T07:13:58;5.07;;;4.20;;
13469;SDS011;6807;48.682;9.032;2022-08-25T07:16:27;5.22;;;4.72;;
13469;SDS011;6807;48.682;9.032;2022-08-25T07:19:01;4.63;;;3.95;;
13469;SDS011;6807;48.682;9.032;2022-08-25T07:21:30;5.05;;;4.55;;
13469;SDS011;6807;48.682;9.032;2022-08-25T07:23:59;6.47;;;4.70;;
13469;SDS011;6807;48.682;9.032;2022-08-25T07:26:32;6.55;;;5.13;;
13469;SDS011;6807;48.682;9.032;2022-08-25T07:29:00;7.40;;;4.50;;
13469;SDS011;6807;48.682;9.032;2022-08-25T07:31:29;5.25;;;4.75;;
13469;SDS011;6807;48.682;9.032;2022-08-25T07:33:56;4.82;;;4.32;;
13469;SDS011;6807;48.682;9.032;2022-08-25T07:36:41;5.18;;;4.68;;
13469;SDS011;6807;48.682;9.032;2022-08-25T07:39:08;6.03;;;4.72;;
13469;SDS011;6807;48.682;9.032;2022-08-25T07:41:38;5.93;;;4.40;;
13469;SDS011;6807;48.682;9.032;2022-08-25T07:44:07;5.93;;;4.40;;
13469;SDS011;6807;48.682;9.032;2022-08-25T07:46:42;6.07;;;4.40;;
13469;SDS011;6807;48.682;9.032;2022-08-25T07:49:09;6.45;;;4.43;;
13469;SDS011;6807;48.682;9.032;2022-08-25T07:51:40;5.40;;;4.63;;
13469;SDS011;6807;48.682;9.032;2022-08-25T07:54:07;4.60;;;4.15;;
13469;SDS011;6807;48.682;9.032;2022-08-25T07:56:34;5.25;;;4.75;;
13469;SDS011;6807;48.682;9.032;2022-08-25T07:59:02;4.55;;;4.15;;
13469;SDS011;6807;48.682;9.032;2022-08-25T08:01:29;6.45;;;4.32;;
13469;SDS011;6807;48.682;9.032;2022-08-25T08:03:56;5.03;;;4.35;;
13469;SDS011;6807;48.682;9.032;2022-08-25T08:06:25;4.82;;;4.00;;
13469;SDS011;6807;48.682;9.032;2022-08-25T08:08:52;5.68;;;4.20;;
13469;SDS011;6807;48.682;9.032;2022-08-25T08:11:21;7.03;;;4.45;;
13469;SDS011;6807;48.682;9.032;2022-08-25T08:13:49;4.47;;;4.07;;
13469;SDS011;6807;48.682;9.032;2022-08-25T08:16:30;5.43;;;4.15;;
13469;SDS011;6807;48.682;9.032;2022-08-25T08:18:59;8.00;;;4.53;;
13469;SDS011;6807;48.682;9.032;2022-08-25T08:21:27;7.10;;;4.75;;
13469;SDS011;6807;48.682;9.032;2022-08-25T08:24:01;7.35;;;4.95;;
13469;SDS011;6807;48.682;9.032;2022-08-25T08:26:29;7.38;;;4.22;;
13469;SDS011;6807;48.682;9.032;2022-08-25T08:28:58;5.68;;;4.38;;
13469;SDS011;6807;48.682;9.032;2022-08-25T08:31:27;4.63;;;3.97;;
13469;SDS011;6807;48.682;9.032;2022-08-25T08:36:35;4.97;;;4.47;;
13469;SDS011;6807;48.682;9.032;2022-08-25T08:39:14;5.20;;;4.30;;
13469;SDS011;6807;48.682;9.032;2022-08-25T08:41:49;5.30;;;4.57;;
13469;SDS011;6807;48.682;9.032;2022-08-25T08:44:41;5.13;;;4.63;;
13469;SDS011;6807;48.682;9.032;2022-08-25T08:53:12;4.95;;;4.30;;
13469;SDS011;6807;48.682;9.032;2022-08-25T08:55:45;4.95;;;4.20;;
13469;SDS011;6807;48.682;9.032;2022-08-25T08:58:15;6.90;;;4.18;;
13469;SDS011;6807;48.682;9.032;2022-08-25T09:00:46;4.55;;;4.15;;
13469;SDS011;6807;48.682;9.032;2022-08-25T09:03:22;6.70;;;4.05;;
13469;SDS011;6807;48.682;9.032;2022-08-25T09:05:58;6.55;;;4.95;;
13469;SDS011;6807;48.682;9.032;2022-08-25T09:08:29;5.65;;;3.90;;
13469;SDS011;6807;48.682;9.032;2022-08-25T09:11:00;5.00;;;4.50;;
13469;SDS011;6807;48.682;9.032;2022-08-25T09:13:56;5.20;;;4.03;;
13469;SDS011;6807;48.682;9.032;2022-08-25T09:16:34;4.60;;;4.20;;
13469;SDS011;6807;48.682;9.032;2022-08-25T09:22:15;4.85;;;4.40;;
13469;SDS011;6807;48.682;9.032;2022-08-25T09:24:55;6.97;;;4.40;;
13469;SDS011;6807;48.682;9.032;2022-08-25T09:27:32;5.57;;;4.32;;
13469;SDS011;6807;48.682;9.032;2022-08-25T09:30:06;5.53;;;3.90;;
13469;SDS011;6807;48.682;9.032;2022-08-25T09:32:37;4.65;;;4.22;;
13469;SDS011;6807;48.682;9.032;2022-08-25T09:35:07;4.65;;;3.90;;
13469;SDS011;6807;48.682;9.032;2022-08-25T09:37:40;4.50;;;4.10;;
13469;SDS011;6807;48.682;9.032;2022-08-25T09:40:09;4.18;;;3.88;;
13469;SDS011;6807;48.682;9.032;2022-08-25T09:42:48;4.45;;;4.05;;
13469;SDS011;6807;48.682;9.032;2022-08-25T09:45:20;5.93;;;4.20;;
13469;SDS011;6807;48.682;9.032;2022-08-25T09:47:59;4.30;;;3.90;;
13469;SDS011;6807;48.682;9.032;2022-08-25T09:50:29;4.45;;;4.07;;
13469;SDS011;6807;48.682;9.032;2022-08-25T09:53:09;3.95;;;3.50;;
13469;SDS011;6807;48.682;9.032;2022-08-25T09:55:41;4.38;;;3.97;;
13469;SDS011;6807;48.682;9.032;2022-08-25T10:01:00;4.80;;;4.07;;
13469;SDS011;6807;48.682;9.032;2022-08-25T10:03:29;5.35;;;3.80;;
13469;SDS011;6807;48.682;9.032;2022-08-25T10:08:50;4.15;;;3.78;;
13469;SDS011;6807;48.682;9.032;2022-08-25T10:14:19;4.72;;;4.20;;
13469;SDS011;6807;48.682;9.032;2022-08-25T10:16:52;4.75;;;3.75;;
13469;SDS011;6807;48.682;9.032;2022-08-25T10:19:38;4.05;;;3.72;;
13469;SDS011;6807;48.682;9.032;2022-08-25T10:22:08;4.28;;;3.88;;
13469;SDS011;6807;48.682;9.032;2022-08-25T10:24:37;4.72;;;4.07;;
13469;SDS011;6807;48.682;9.032;2022-08-25T10:27:10;3.88;;;3.47;;
13469;SDS011;6807;48.682;9.032;2022-08-25T10:30:02;4.63;;;4.22;;
13469;SDS011;6807;48.682;9.032;2022-08-25T10:32:56;5.68;;;4.13;;
13469;SDS011;6807;48.682;9.032;2022-08-25T10:35:44;3.72;;;3.40;;
13469;SDS011;6807;48.682;9.032;2022-08-25T10:41:07;3.80;;;3.50;;
13469;SDS011;6807;48.682;9.032;2022-08-25T10:43:53;4.75;;;3.55;;
13469;SDS011;6807;48.682;9.032;2022-08-25T10:46:55;4.13;;;3.35;;
13469;SDS011;6807;48.682;9.032;2022-08-25T10:49:33;3.85;;;3.47;;
13469;SDS011;6807;48.682;9.032;2022-08-25T10:52:17;4.13;;;3.65;;
13469;SDS011;6807;48.682;9.032;2022-08-25T10:55:05;4.22;;;3.50;;
13469;SDS011;6807;48.682;9.032;2022-08-25T10:57:59;3.85;;;3.53;;
13469;SDS011;6807;48.682;9.032;2022-08-25T11:00:47;4.00;;;3.53;;
13469;SDS011;6807;48.682;9.032;2022-08-25T11:03:33;3.78;;;3.47;;
13469;SDS011;6807;48.682;9.032;2022-08-25T11:06:12;4.70;;;3.42;;
13469;SDS011;6807;48.682;9.032;2022-08-25T11:08:55;4.63;;;3.35;;
13469;SDS011;6807;48.682;9.032;2022-08-25T11:11:33;4.07;;;3.30;;
13469;SDS011;6807;48.682;9.032;2022-08-25T11:14:11;5.38;;;3.30;;
13469;SDS011;6807;48.682;9.032;2022-08-25T11:16:46;3.95;;;3.10;;
13469;SDS011;6807;48.682;9.032;2022-08-25T11:19:21;3.50;;;3.20;;
13469;SDS011;6807;48.682;9.032;2022-08-25T11:21:55;3.17;;;2.88;;
13469;SDS011;6807;48.682;9.032;2022-08-25T11:24:37;3.47;;;3.17;;
13469;SDS011;6807;48.682;9.032;2022-08-25T11:27:11;3.40;;;3.10;;
13469;SDS011;6807;48.682;9.032;2022-08-25T11:29:46;3.53;;;3.22;;
13469;SDS011;6807;48.682;9.032;2022-08-25T11:32:23;3.88;;;3.00;;
13469;SDS011;6807;48.682;9.032;2022-08-25T11:35:03;3.58;;;2.80;;
13469;SDS011;6807;48.682;9.032;2022-08-25T11:37:34;5.85;;;3.08;;
13469;SDS011;6807;48.682;9.032;2022-08-25T11:43:13;3.03;;;2.83;;
13469;SDS011;6807;48.682;9.032;2022-08-25T11:48:55;3.35;;;3.05;;
13469;SDS011;6807;48.682;9.032;2022-08-25T11:51:39;3.20;;;2.90;;
13469;SDS011;6807;48.682;9.032;2022-08-25T11:54:17;2.75;;;2.55;;
13469;SDS011;6807;48.682;9.032;2022-08-25T11:56:50;3.40;;;3.10;;
13469;SDS011;6807;48.682;9.032;2022-08-25T12:02:33;5.40;;;3.10;;
13469;SDS011;6807;48.682;9.032;2022-08-25T12:05:05;4.38;;;3.60;;
13469;SDS011;6807;48.682;9.032;2022-08-25T12:10:52;3.63;;;3.22;;
13469;SDS011;6807;48.682;9.032;2022-08-25T12:13:26;3.63;;;3.33;;
13469;SDS011;6807;48.682;9.032;2022-08-25T12:16:05;4.50;;;3.10;;
13469;SDS011;6807;48.682;9.032;2022-08-25T12:18:43;4.20;;;3.17;;
13469;SDS011;6807;48.682;9.032;2022-08-25T12:21:16;3.47;;;3.15;;
13469;SDS011;6807;48.682;9.032;2022-08-25T12:24:11;3.90;;;2.60;;
13469;SDS011;6807;48.682;9.032;2022-08-25T12:26:43;3.00;;;2.70;;
13469;SDS011;6807;48.682;9.032;2022-08-25T12:29:19;2.85;;;2.50;;
13469;SDS011;6807;48.682;9.032;2022-08-25T12:32:04;2.65;;;2.45;;
13469;SDS011;6807;48.682;9.032;2022-08-25T12:34:49;2.83;;;2.63;;
13469;SDS011;6807;48.682;9.032;2022-08-25T12:37:23;6.47;;;3.25;;
13469;SDS011;6807;48.682;9.032;2022-08-25T12:39:55;2.83;;;2.63;;
13469;SDS011;6807;48.682;9.032;2022-08-25T12:42:26;2.58;;;2.35;;
13469;SDS011;6807;48.682;9.032;2022-08-25T12:45:10;2.53;;;2.20;;
13469;SDS011;6807;48.682;9.032;2022-08-25T12:47:40;2.50;;;2.30;;
13469;SDS011;6807;48.682;9.032;2022-08-25T12:53:10;6.60;;;3.05;;
13469;SDS011;6807;48.682;9.032;2022-08-25T12:55:42;2.65;;;2.45;;
13469;SDS011;6807;48.682;9.032;2022-08-25T12:58:12;4.03;;;2.78;;
13469;SDS011;6807;48.682;9.032;2022-08-25T13:00:53;3.05;;;2.70;;
13469;SDS011;6807;48.682;9.032;2022-08-25T13:03:49;3.75;;;3.03;;
13469;SDS011;6807;48.682;9.032;2022-08-25T13:06:39;3.00;;;2.70;;
13469;SDS011;6807;48.682;9.032;2022-08-25T13:12:23;2.67;;;2.47;;
13469;SDS011;6807;48.682;9.032;2022-08-25T13:14:56;2.78;;;2.40;;
13469;SDS011;6807;48.682;9.032;2022-08-25T13:17:25;3.30;;;2.80;;
13469;SDS011;6807;48.682;9.032;2022-08-25T13:22:37;2.92;;;2.63;;
13469;SDS011;6807;48.682;9.032;2022-08-25T13:25:06;2.60;;;2.40;;
13469;SDS011;6807;48.682;9.032;2022-08-25T13:27:41;2.95;;;2.63;;
13469;SDS011;6807;48.682;9.032;2022-08-25T13:30:26;2.92;;;2.20;;
13469;SDS011;6807;48.682;9.032;2022-08-25T13:32:56;2.50;;;2.30;;
13469;SDS011;6807;48.682;9.032;2022-08-25T13:35:25;4.25;;;2.85;;
13469;SDS011;6807;48.682;9.032;2022-08-25T13:38:05;2.58;;;2.38;;
13469;SDS011;6807;48.682;9.032;2022-08-25T13:40:40;2.67;;;2.47;;
13469;SDS011;6807;48.682;9.032;2022-08-25T13:43:08;2.78;;;2.58;;
13469;SDS011;6807;48.682;9.032;2022-08-25T13:45:38;2.47;;;2.28;;
13469;SDS011;6807;48.682;9.032;2022-08-25T13:48:06;3.55;;;2.50;;
13469;SDS011;6807;48.682;9.032;2022-08-25T13:50:35;2.40;;;2.20;;
13469;SDS011;6807;48.682;9.032;2022-08-25T13:53:05;2.40;;;2.20;;
13469;SDS011;6807;48.682;9.032;2022-08-25T13:55:36;3.03;;;2.60;;
13469;SDS011;6807;48.682;9.032;2022-08-25T13:58:05;2.50;;;2.30;;
13469;SDS011;6807;48.682;9.032;2022-08-25T14:00:40;4.35;;;2.63;;
13469;SDS011;6807;48.682;9.032;2022-08-25T14:06:03;3.50;;;2.70;;
13469;SDS011;6807;48.682;9.032;2022-08-25T14:08:32;4.70;;;2.63;;
13469;SDS011;6807;48.682;9.032;2022-08-25T14:11:01;2.83;;;2.63;;
13469;SDS011;6807;48.682;9.032;2022-08-25T14:13:35;3.35;;;2.58;;
13469;SDS011;6807;48.682;9.032;2022-08-25T14:16:06;2.70;;;2.35;;
13469;SDS011;6807;48.682;9.032;2022-08-25T14:18:33;5.22;;;2.65;;
13469;SDS011;6807;48.682;9.032;2022-08-25T14:21:02;2.50;;;2.30;;
13469;SDS011;6807;48.682;9.032;2022-08-25T14:23:34;2.33;;;2.13;;
13469;SDS011;6807;48.682;9.032;2022-08-25T14:26:01;3.55;;;2.35;;
13469;SDS011;6807;48.682;9.032;2022-08-25T14:28:29;3.95;;;2.63;;
13469;SDS011;6807;48.682;9.032;2022-08-25T14:31:00;2.63;;;2.17;;
13469;SDS011;6807;48.682;9.032;2022-08-25T14:33:28;2.40;;;2.20;;
13469;SDS011;6807;48.682;9.032;2022-08-25T14:35:59;2.85;;;2.65;;
13469;SDS011;6807;48.682;9.032;2022-08-25T14:38:29;2.83;;;2.63;;
13469;SDS011;6807;48.682;9.032;2022-08-25T14:40:56;2.50;;;2.30;;
13469;SDS011;6807;48.682;9.032;2022-08-25T14:43:23;2.70;;;2.50;;
13469;SDS011;6807;48.682;9.032;2022-08-25T14:45:51;2.75;;;2.55;;
13469;SDS011;6807;48.682;9.032;2022-08-25T14:48:21;2.50;;;2.20;;
13469;SDS011;6807;48.682;9.032;2022-08-25T14:50:49;2.80;;;2.47;;
13469;SDS011;6807;48.682;9.032;2022-08-25T14:53:18;4.82;;;2.28;;
13469;SDS011;6807;48.682;9.032;2022-08-25T14:55:45;2.50;;;2.30;;
13469;SDS011;6807;48.682;9.032;2022-08-25T14:58:14;2.30;;;2.10;;
13469;SDS011;6807;48.682;9.032;2022-08-25T15:00:43;4.05;;;2.40;;
13469;SDS011;6807;48.682;9.032;2022-08-25T15:03:11;2.80;;;2.35;;
13469;SDS011;6807;48.682;9.032;2022-08-25T15:05:39;2.30;;;2.05;;
13469;SDS011;6807;48.682;9.032;2022-08-25T15:08:07;2.28;;;2.08;;
13469;SDS011;6807;48.682;9.032;2022-08-25T15:10:52;2.50;;;2.30;;
13469;SDS011;6807;48.682;9.032;2022-08-25T15:13:20;2.33;;;2.13;;
13469;SDS011;6807;48.682;9.032;2022-08-25T15:15:48;2.50;;;2.30;;
13469;SDS011;6807;48.682;9.032;2022-08-25T15:18:15;2.50;;;2.25;;
13469;SDS011;6807;48.682;9.032;2022-08-25T15:20:44;2.65;;;2.33;;
13469;SDS011;6807;48.682;9.032;2022-08-25T15:23:11;3.47;;;2.70;;
13469;SDS011;6807;48.682;9.032;2022-08-25T15:25:38;2.60;;;2.40;;
13469;SDS011;6807;48.682;9.032;2022-08-25T15:28:07;3.97;;;2.33;;
13469;SDS011;6807;48.682;9.032;2022-08-25T15:30:34;2.83;;;2.55;;
13469;SDS011;6807;48.682;9.032;2022-08-25T15:33:02;3.35;;;2.53;;
13469;SDS011;6807;48.682;9.032;2022-08-25T15:35:29;2.78;;;2.58;;
13469;SDS011;6807;48.682;9.032;2022-08-25T15:37:59;2.88;;;2.55;;
13469;SDS011;6807;48.682;9.032;2022-08-25T15:40:28;3.42;;;2.60;;
13469;SDS011;6807;48.682;9.032;2022-08-25T15:42:55;3.05;;;2.25;;
13469;SDS011;6807;48.682;9.032;2022-08-25T15:45:22;2.47;;;2.20;;
13469;SDS011;6807;48.682;9.032;2022-08-25T15:47:49;2.58;;;2.28;;
13469;SDS011;6807;48.682;9.032;2022-08-25T15:50:21;3.00;;;2.60;;
13469;SDS011;6807;48.682;9.032;2022-08-25T15:52:50;3.28;;;2.30;;
13469;SDS011;6807;48.682;9.032;2022-08-25T15:55:19;2.45;;;2.25;;
13469;SDS011;6807;48.682;9.032;2022-08-25T15:57:46;3.15;;;2.58;;
13469;SDS011;6807;48.682;9.032;2022-08-25T16:00:14;2.72;;;2.53;;
13469;SDS011;6807;48.682;9.032;2022-08-25T16:02:42;2.92;;;2.63;;
13469;SDS011;6807;48.682;9.032;2022-08-25T16:05:12;4.00;;;2.65;;
13469;SDS011;6807;48.682;9.032;2022-08-25T16:07:39;3.40;;;2.55;;
13469;SDS011;6807;48.682;9.032;2022-08-25T16:10:06;3.58;;;2.70;;
13469;SDS011;6807;48.682;9.032;2022-08-25T16:12:35;3.60;;;2.47;;
13469;SDS011;6807;48.682;9.032;2022-08-25T16:15:04;2.83;;;2.60;;
13469;SDS011;6807;48.682;9.032;2022-08-25T16:17:32;3.17;;;2.53;;
13469;SDS011;6807;48.682;9.032;2022-08-25T16:19:59;2.75;;;2.50;;
13469;SDS011;6807;48.682;9.032;2022-08-25T16:22:26;3.72;;;2.70;;
13469;SDS011;6807;48.682;9.032;2022-08-25T16:24:53;2.83;;;2.47;;
13469;SDS011;6807;48.682;9.032;2022-08-25T16:27:19;3.45;;;2.80;;